Whitetail, Montana
Current Conditions -  °F | °C
As of 7:21 AM on Sunday 23 Nov 2014 (Local Time) from KOLF Reporting Station
Light Snow Light Snow  
Wind Chill: 12°   Ceiling: 3000
Heat Index: 26°   Visibility: 4mi
Dew Point: 18°   Wind: 22mph
Humidity: 71%   Direction: 300°WNW
Pressure: 29.71"   Gusts: NA
Location:  48.9°N, 105.16°W
Report Text: KOLF 231421Z AUTO 30019KT 4SM -SN OVC030 M03/M08 A2971 RMK AO2 PK WND 30033/1359 P0000 T10331078
Loading
Personal Weather Stations






























Interactive Weather Map New forecast layout! Learn more

10-Day Weather Forecast

Advertisements
Track Severe Weather on mobile